sensor_id;sensor_type;location;lat;lon;timestamp;P1;durP1;ratioP1;P2;durP2;ratioP2
22219;SDS011;11279;48.364;10.904;2022-09-06T00:00:34;10.83;;;5.73;;
22219;SDS011;11279;48.364;10.904;2022-09-06T00:01:35;16.33;;;6.40;;
22219;SDS011;11279;48.364;10.904;2022-09-06T00:02:36;10.10;;;6.10;;
22219;SDS011;11279;48.364;10.904;2022-09-06T00:03:36;12.23;;;5.47;;
22219;SDS011;11279;48.364;10.904;2022-09-06T00:04:37;15.53;;;6.33;;
22219;SDS011;11279;48.364;10.904;2022-09-06T00:05:37;8.03;;;5.57;;
22219;SDS011;11279;48.364;10.904;2022-09-06T00:06:38;10.60;;;6.20;;
22219;SDS011;11279;48.364;10.904;2022-09-06T00:07:39;8.80;;;5.93;;
22219;SDS011;11279;48.364;10.904;2022-09-06T00:08:40;14.82;;;6.30;;
22219;SDS011;11279;48.364;10.904;2022-09-06T00:09:41;10.63;;;5.70;;
22219;SDS011;11279;48.364;10.904;2022-09-06T00:10:42;14.63;;;5.43;;
22219;SDS011;11279;48.364;10.904;2022-09-06T00:11:42;9.03;;;5.77;;
22219;SDS011;11279;48.364;10.904;2022-09-06T00:12:43;7.80;;;5.63;;
22219;SDS011;11279;48.364;10.904;2022-09-06T00:13:43;9.60;;;5.80;;
22219;SDS011;11279;48.364;10.904;2022-09-06T00:14:44;9.60;;;5.70;;
22219;SDS011;11279;48.364;10.904;2022-09-06T00:15:45;8.67;;;5.73;;
22219;SDS011;11279;48.364;10.904;2022-09-06T00:16:45;9.50;;;5.97;;
22219;SDS011;11279;48.364;10.904;2022-09-06T00:17:46;9.63;;;5.83;;
22219;SDS011;11279;48.364;10.904;2022-09-06T00:18:48;8.90;;;5.63;;
22219;SDS011;11279;48.364;10.904;2022-09-06T00:19:49;9.45;;;5.72;;
22219;SDS011;11279;48.364;10.904;2022-09-06T00:20:49;8.37;;;5.53;;
22219;SDS011;11279;48.364;10.904;2022-09-06T00:21:49;7.47;;;5.30;;
22219;SDS011;11279;48.364;10.904;2022-09-06T00:22:50;11.07;;;5.73;;
22219;SDS011;11279;48.364;10.904;2022-09-06T00:23:50;8.97;;;5.33;;
22219;SDS011;11279;48.364;10.904;2022-09-06T00:24:51;10.03;;;5.77;;
22219;SDS011;11279;48.364;10.904;2022-09-06T00:25:52;8.97;;;5.67;;
22219;SDS011;11279;48.364;10.904;2022-09-06T00:26:52;14.40;;;5.93;;
22219;SDS011;11279;48.364;10.904;2022-09-06T00:27:54;7.87;;;5.73;;
22219;SDS011;11279;48.364;10.904;2022-09-06T00:28:58;9.15;;;5.50;;
22219;SDS011;11279;48.364;10.904;2022-09-06T00:29:58;11.33;;;6.60;;
22219;SDS011;11279;48.364;10.904;2022-09-06T00:31:06;12.07;;;6.17;;
22219;SDS011;11279;48.364;10.904;2022-09-06T00:32:16;10.98;;;5.85;;
22219;SDS011;11279;48.364;10.904;2022-09-06T00:33:17;12.50;;;6.20;;
22219;SDS011;11279;48.364;10.904;2022-09-06T00:34:17;9.50;;;6.03;;
22219;SDS011;11279;48.364;10.904;2022-09-06T00:35:17;9.60;;;5.83;;
22219;SDS011;11279;48.364;10.904;2022-09-06T00:36:19;8.85;;;6.22;;
22219;SDS011;11279;48.364;10.904;2022-09-06T00:37:19;10.15;;;6.25;;
22219;SDS011;11279;48.364;10.904;2022-09-06T00:38:20;10.20;;;5.67;;
22219;SDS011;11279;48.364;10.904;2022-09-06T00:39:20;12.90;;;6.50;;
22219;SDS011;11279;48.364;10.904;2022-09-06T00:40:21;8.00;;;5.73;;
22219;SDS011;11279;48.364;10.904;2022-09-06T00:41:21;11.17;;;5.83;;
22219;SDS011;11279;48.364;10.904;2022-09-06T00:42:22;10.37;;;6.27;;
22219;SDS011;11279;48.364;10.904;2022-09-06T00:43:22;13.67;;;6.17;;
22219;SDS011;11279;48.364;10.904;2022-09-06T00:44:23;11.20;;;6.30;;
22219;SDS011;11279;48.364;10.904;2022-09-06T00:45:24;9.20;;;6.50;;
22219;SDS011;11279;48.364;10.904;2022-09-06T00:46:26;10.95;;;6.07;;
22219;SDS011;11279;48.364;10.904;2022-09-06T00:47:27;11.23;;;6.53;;
22219;SDS011;11279;48.364;10.904;2022-09-06T00:48:28;12.67;;;6.33;;
22219;SDS011;11279;48.364;10.904;2022-09-06T00:49:29;10.60;;;6.33;;
22219;SDS011;11279;48.364;10.904;2022-09-06T00:50:32;9.95;;;6.30;;
22219;SDS011;11279;48.364;10.904;2022-09-06T00:51:33;8.23;;;5.80;;
22219;SDS011;11279;48.364;10.904;2022-09-06T00:52:33;12.15;;;6.35;;
22219;SDS011;11279;48.364;10.904;2022-09-06T00:53:35;8.60;;;5.68;;
22219;SDS011;11279;48.364;10.904;2022-09-06T00:54:35;11.90;;;6.73;;
22219;SDS011;11279;48.364;10.904;2022-09-06T00:55:37;10.90;;;6.18;;
22219;SDS011;11279;48.364;10.904;2022-09-06T00:56:40;11.82;;;6.45;;
22219;SDS011;11279;48.364;10.904;2022-09-06T00:57:41;10.43;;;6.82;;
22219;SDS011;11279;48.364;10.904;2022-09-06T00:58:41;8.00;;;5.80;;
22219;SDS011;11279;48.364;10.904;2022-09-06T00:59:42;13.60;;;6.90;;
22219;SDS011;11279;48.364;10.904;2022-09-06T01:00:44;10.35;;;5.70;;
22219;SDS011;11279;48.364;10.904;2022-09-06T01:01:45;10.50;;;6.47;;
22219;SDS011;11279;48.364;10.904;2022-09-06T01:02:46;10.37;;;6.20;;
22219;SDS011;11279;48.364;10.904;2022-09-06T01:03:47;7.88;;;5.63;;
22219;SDS011;11279;48.364;10.904;2022-09-06T01:04:48;8.83;;;6.27;;
22219;SDS011;11279;48.364;10.904;2022-09-06T01:08:38;10.82;;;6.32;;
22219;SDS011;11279;48.364;10.904;2022-09-06T01:15:04;11.17;;;6.30;;
22219;SDS011;11279;48.364;10.904;2022-09-06T01:26:03;12.85;;;7.07;;
22219;SDS011;11279;48.364;10.904;2022-09-06T01:28:47;12.25;;;6.82;;
22219;SDS011;11279;48.364;10.904;2022-09-06T01:30:30;10.03;;;6.73;;
22219;SDS011;11279;48.364;10.904;2022-09-06T01:34:21;11.00;;;6.90;;
22219;SDS011;11279;48.364;10.904;2022-09-06T01:36:27;11.60;;;7.22;;
22219;SDS011;11279;48.364;10.904;2022-09-06T01:37:33;14.85;;;7.50;;
22219;SDS011;11279;48.364;10.904;2022-09-06T01:38:34;10.40;;;6.90;;
22219;SDS011;11279;48.364;10.904;2022-09-06T01:39:35;11.60;;;6.87;;
22219;SDS011;11279;48.364;10.904;2022-09-06T01:40:36;12.25;;;7.00;;
22219;SDS011;11279;48.364;10.904;2022-09-06T01:41:37;11.67;;;6.33;;
22219;SDS011;11279;48.364;10.904;2022-09-06T01:42:37;10.57;;;6.83;;
22219;SDS011;11279;48.364;10.904;2022-09-06T01:43:39;9.35;;;5.72;;
22219;SDS011;11279;48.364;10.904;2022-09-06T01:44:43;10.27;;;6.57;;
22219;SDS011;11279;48.364;10.904;2022-09-06T01:47:19;10.95;;;5.88;;
22219;SDS011;11279;48.364;10.904;2022-09-06T01:57:57;8.48;;;6.47;;
22219;SDS011;11279;48.364;10.904;2022-09-06T02:00:28;12.38;;;7.45;;
22219;SDS011;11279;48.364;10.904;2022-09-06T02:01:30;11.50;;;7.10;;
22219;SDS011;11279;48.364;10.904;2022-09-06T02:05:21;10.77;;;7.22;;
22219;SDS011;11279;48.364;10.904;2022-09-06T02:06:41;12.40;;;7.05;;
22219;SDS011;11279;48.364;10.904;2022-09-06T02:07:44;10.40;;;7.40;;
22219;SDS011;11279;48.364;10.904;2022-09-06T02:08:47;9.15;;;6.50;;
22219;SDS011;11279;48.364;10.904;2022-09-06T02:09:53;12.27;;;7.00;;
22219;SDS011;11279;48.364;10.904;2022-09-06T02:11:00;12.23;;;7.15;;
22219;SDS011;11279;48.364;10.904;2022-09-06T02:12:02;11.32;;;7.22;;
22219;SDS011;11279;48.364;10.904;2022-09-06T02:13:04;11.00;;;7.55;;
22219;SDS011;11279;48.364;10.904;2022-09-06T02:14:07;9.93;;;6.95;;
22219;SDS011;11279;48.364;10.904;2022-09-06T02:15:14;10.68;;;7.30;;
22219;SDS011;11279;48.364;10.904;2022-09-06T02:16:17;11.13;;;7.53;;
22219;SDS011;11279;48.364;10.904;2022-09-06T02:17:20;11.13;;;7.57;;
22219;SDS011;11279;48.364;10.904;2022-09-06T02:18:26;14.73;;;7.40;;
22219;SDS011;11279;48.364;10.904;2022-09-06T02:19:40;10.73;;;6.85;;
22219;SDS011;11279;48.364;10.904;2022-09-06T02:20:44;12.43;;;6.93;;
22219;SDS011;11279;48.364;10.904;2022-09-06T02:21:49;8.85;;;6.47;;
22219;SDS011;11279;48.364;10.904;2022-09-06T02:22:51;9.32;;;6.72;;
22219;SDS011;11279;48.364;10.904;2022-09-06T02:23:52;10.43;;;6.72;;
22219;SDS011;11279;48.364;10.904;2022-09-06T02:24:54;11.52;;;7.18;;
22219;SDS011;11279;48.364;10.904;2022-09-06T02:26:17;9.48;;;7.07;;
22219;SDS011;11279;48.364;10.904;2022-09-06T02:27:17;11.27;;;7.05;;
22219;SDS011;11279;48.364;10.904;2022-09-06T02:28:17;10.30;;;6.83;;
22219;SDS011;11279;48.364;10.904;2022-09-06T02:29:18;12.70;;;6.87;;
22219;SDS011;11279;48.364;10.904;2022-09-06T02:30:18;14.57;;;7.07;;
22219;SDS011;11279;48.364;10.904;2022-09-06T02:31:20;10.20;;;6.83;;
22219;SDS011;11279;48.364;10.904;2022-09-06T02:32:36;10.77;;;6.97;;
22219;SDS011;11279;48.364;10.904;2022-09-06T02:33:39;9.60;;;6.40;;
22219;SDS011;11279;48.364;10.904;2022-09-06T02:34:40;12.48;;;7.43;;
22219;SDS011;11279;48.364;10.904;2022-09-06T02:35:43;9.57;;;6.43;;
22219;SDS011;11279;48.364;10.904;2022-09-06T02:36:44;10.38;;;7.03;;
22219;SDS011;11279;48.364;10.904;2022-09-06T02:37:45;10.77;;;7.07;;
22219;SDS011;11279;48.364;10.904;2022-09-06T02:38:45;8.90;;;6.40;;
22219;SDS011;11279;48.364;10.904;2022-09-06T02:39:46;11.00;;;6.73;;
22219;SDS011;11279;48.364;10.904;2022-09-06T02:40:46;11.67;;;7.57;;
22219;SDS011;11279;48.364;10.904;2022-09-06T02:41:47;11.70;;;6.93;;
22219;SDS011;11279;48.364;10.904;2022-09-06T02:42:48;9.13;;;7.00;;
22219;SDS011;11279;48.364;10.904;2022-09-06T02:43:48;10.80;;;7.10;;
22219;SDS011;11279;48.364;10.904;2022-09-06T02:44:49;11.47;;;7.73;;
22219;SDS011;11279;48.364;10.904;2022-09-06T02:45:49;12.83;;;8.07;;
22219;SDS011;11279;48.364;10.904;2022-09-06T02:46:50;10.97;;;6.90;;
22219;SDS011;11279;48.364;10.904;2022-09-06T02:47:50;12.47;;;6.70;;
22219;SDS011;11279;48.364;10.904;2022-09-06T02:48:50;12.97;;;7.30;;
22219;SDS011;11279;48.364;10.904;2022-09-06T02:49:51;10.40;;;7.33;;
22219;SDS011;11279;48.364;10.904;2022-09-06T02:50:51;11.70;;;7.43;;
22219;SDS011;11279;48.364;10.904;2022-09-06T02:51:52;10.50;;;7.23;;
22219;SDS011;11279;48.364;10.904;2022-09-06T02:53:05;10.83;;;6.73;;
22219;SDS011;11279;48.364;10.904;2022-09-06T02:54:06;10.50;;;6.63;;
22219;SDS011;11279;48.364;10.904;2022-09-06T02:55:07;11.53;;;6.80;;
22219;SDS011;11279;48.364;10.904;2022-09-06T02:56:07;11.87;;;6.73;;
22219;SDS011;11279;48.364;10.904;2022-09-06T02:57:08;9.70;;;7.00;;
22219;SDS011;11279;48.364;10.904;2022-09-06T02:58:09;11.10;;;6.90;;
22219;SDS011;11279;48.364;10.904;2022-09-06T02:59:10;11.32;;;7.30;;
22219;SDS011;11279;48.364;10.904;2022-09-06T03:00:11;11.90;;;7.50;;
22219;SDS011;11279;48.364;10.904;2022-09-06T03:01:12;15.53;;;7.10;;
22219;SDS011;11279;48.364;10.904;2022-09-06T03:02:12;13.37;;;7.43;;
22219;SDS011;11279;48.364;10.904;2022-09-06T03:03:12;15.63;;;7.50;;
22219;SDS011;11279;48.364;10.904;2022-09-06T03:04:13;9.83;;;6.67;;
22219;SDS011;11279;48.364;10.904;2022-09-06T03:05:14;10.50;;;6.77;;
22219;SDS011;11279;48.364;10.904;2022-09-06T03:06:14;16.00;;;7.43;;
22219;SDS011;11279;48.364;10.904;2022-09-06T03:07:15;12.60;;;7.17;;
22219;SDS011;11279;48.364;10.904;2022-09-06T03:08:15;15.13;;;6.60;;
22219;SDS011;11279;48.364;10.904;2022-09-06T03:09:16;12.10;;;6.68;;
22219;SDS011;11279;48.364;10.904;2022-09-06T03:10:17;12.17;;;7.13;;
22219;SDS011;11279;48.364;10.904;2022-09-06T03:11:17;14.43;;;7.30;;
22219;SDS011;11279;48.364;10.904;2022-09-06T03:12:18;9.90;;;7.23;;
22219;SDS011;11279;48.364;10.904;2022-09-06T03:13:19;10.97;;;7.03;;
22219;SDS011;11279;48.364;10.904;2022-09-06T03:14:19;10.38;;;6.80;;
22219;SDS011;11279;48.364;10.904;2022-09-06T03:15:20;10.83;;;6.67;;
22219;SDS011;11279;48.364;10.904;2022-09-06T03:16:20;10.77;;;7.60;;
22219;SDS011;11279;48.364;10.904;2022-09-06T03:17:21;10.38;;;6.53;;
22219;SDS011;11279;48.364;10.904;2022-09-06T03:18:22;11.00;;;7.00;;
22219;SDS011;11279;48.364;10.904;2022-09-06T03:19:23;11.27;;;6.90;;
22219;SDS011;11279;48.364;10.904;2022-09-06T03:20:24;9.30;;;5.93;;
22219;SDS011;11279;48.364;10.904;2022-09-06T03:21:24;11.15;;;6.78;;
22219;SDS011;11279;48.364;10.904;2022-09-06T03:22:25;10.90;;;7.13;;
22219;SDS011;11279;48.364;10.904;2022-09-06T03:23:26;11.03;;;6.83;;
22219;SDS011;11279;48.364;10.904;2022-09-06T03:24:27;13.98;;;7.35;;
22219;SDS011;11279;48.364;10.904;2022-09-06T03:25:28;12.37;;;7.27;;
22219;SDS011;11279;48.364;10.904;2022-09-06T03:26:28;11.97;;;6.70;;
22219;SDS011;11279;48.364;10.904;2022-09-06T03:27:29;10.82;;;7.28;;
22219;SDS011;11279;48.364;10.904;2022-09-06T03:28:30;12.70;;;7.37;;
22219;SDS011;11279;48.364;10.904;2022-09-06T03:29:30;12.00;;;7.50;;
22219;SDS011;11279;48.364;10.904;2022-09-06T03:30:30;10.07;;;7.40;;
22219;SDS011;11279;48.364;10.904;2022-09-06T03:31:31;11.50;;;7.10;;
22219;SDS011;11279;48.364;10.904;2022-09-06T03:32:31;10.93;;;7.57;;
22219;SDS011;11279;48.364;10.904;2022-09-06T03:33:32;10.70;;;7.10;;
22219;SDS011;11279;48.364;10.904;2022-09-06T03:34:32;12.73;;;7.93;;
22219;SDS011;11279;48.364;10.904;2022-09-06T03:35:33;11.97;;;7.60;;
22219;SDS011;11279;48.364;10.904;2022-09-06T03:36:33;12.50;;;7.80;;
22219;SDS011;11279;48.364;10.904;2022-09-06T03:37:34;13.20;;;7.40;;
22219;SDS011;11279;48.364;10.904;2022-09-06T03:38:34;10.97;;;7.33;;
22219;SDS011;11279;48.364;10.904;2022-09-06T03:39:34;12.07;;;7.10;;
22219;SDS011;11279;48.364;10.904;2022-09-06T03:40:35;14.83;;;7.83;;
22219;SDS011;11279;48.364;10.904;2022-09-06T03:41:35;10.97;;;7.50;;
22219;SDS011;11279;48.364;10.904;2022-09-06T03:42:37;13.50;;;8.00;;
22219;SDS011;11279;48.364;10.904;2022-09-06T03:43:37;14.77;;;7.80;;
22219;SDS011;11279;48.364;10.904;2022-09-06T03:44:37;10.67;;;7.13;;
22219;SDS011;11279;48.364;10.904;2022-09-06T03:45:38;9.90;;;6.97;;
22219;SDS011;11279;48.364;10.904;2022-09-06T03:46:39;11.73;;;7.80;;
22219;SDS011;11279;48.364;10.904;2022-09-06T03:47:39;15.47;;;7.70;;
22219;SDS011;11279;48.364;10.904;2022-09-06T03:48:40;13.60;;;7.50;;
22219;SDS011;11279;48.364;10.904;2022-09-06T03:49:40;9.27;;;6.80;;
22219;SDS011;11279;48.364;10.904;2022-09-06T03:50:44;11.77;;;7.63;;
22219;SDS011;11279;48.364;10.904;2022-09-06T03:51:45;11.25;;;8.20;;
22219;SDS011;11279;48.364;10.904;2022-09-06T03:52:46;12.53;;;7.20;;
22219;SDS011;11279;48.364;10.904;2022-09-06T03:53:46;13.63;;;7.73;;
22219;SDS011;11279;48.364;10.904;2022-09-06T03:54:46;10.13;;;7.13;;
22219;SDS011;11279;48.364;10.904;2022-09-06T03:55:48;10.53;;;7.47;;
22219;SDS011;11279;48.364;10.904;2022-09-06T03:56:50;13.27;;;7.05;;
22219;SDS011;11279;48.364;10.904;2022-09-06T03:57:50;12.90;;;7.73;;
22219;SDS011;11279;48.364;10.904;2022-09-06T03:58:51;12.10;;;7.43;;
22219;SDS011;11279;48.364;10.904;2022-09-06T03:59:51;11.33;;;7.70;;
22219;SDS011;11279;48.364;10.904;2022-09-06T04:01:01;12.23;;;8.17;;
22219;SDS011;11279;48.364;10.904;2022-09-06T04:02:06;14.30;;;8.48;;
22219;SDS011;11279;48.364;10.904;2022-09-06T04:03:07;14.90;;;8.70;;
22219;SDS011;11279;48.364;10.904;2022-09-06T04:04:07;14.32;;;7.53;;
22219;SDS011;11279;48.364;10.904;2022-09-06T04:05:08;11.67;;;7.43;;
22219;SDS011;11279;48.364;10.904;2022-09-06T04:06:09;12.47;;;7.87;;
22219;SDS011;11279;48.364;10.904;2022-09-06T04:07:09;10.13;;;7.30;;
22219;SDS011;11279;48.364;10.904;2022-09-06T04:08:10;13.43;;;7.90;;
22219;SDS011;11279;48.364;10.904;2022-09-06T04:09:10;11.50;;;8.57;;
22219;SDS011;11279;48.364;10.904;2022-09-06T04:10:10;11.30;;;8.30;;
22219;SDS011;11279;48.364;10.904;2022-09-06T04:11:11;13.43;;;7.80;;
22219;SDS011;11279;48.364;10.904;2022-09-06T04:12:11;12.10;;;8.43;;
22219;SDS011;11279;48.364;10.904;2022-09-06T04:13:12;11.93;;;7.67;;
22219;SDS011;11279;48.364;10.904;2022-09-06T04:14:12;13.90;;;8.73;;
22219;SDS011;11279;48.364;10.904;2022-09-06T04:15:13;9.93;;;7.73;;
22219;SDS011;11279;48.364;10.904;2022-09-06T04:16:13;12.07;;;8.37;;
22219;SDS011;11279;48.364;10.904;2022-09-06T04:17:13;13.00;;;8.97;;
22219;SDS011;11279;48.364;10.904;2022-09-06T04:18:14;11.87;;;8.23;;
22219;SDS011;11279;48.364;10.904;2022-09-06T04:19:15;13.60;;;8.48;;
22219;SDS011;11279;48.364;10.904;2022-09-06T04:20:15;15.10;;;8.30;;
22219;SDS011;11279;48.364;10.904;2022-09-06T04:21:16;13.23;;;8.53;;
22219;SDS011;11279;48.364;10.904;2022-09-06T04:22:16;12.83;;;8.57;;
22219;SDS011;11279;48.364;10.904;2022-09-06T04:23:17;12.67;;;8.67;;
22219;SDS011;11279;48.364;10.904;2022-09-06T04:24:18;13.18;;;8.75;;
22219;SDS011;11279;48.364;10.904;2022-09-06T04:25:18;13.87;;;8.03;;
22219;SDS011;11279;48.364;10.904;2022-09-06T04:26:19;12.07;;;8.50;;
22219;SDS011;11279;48.364;10.904;2022-09-06T04:27:19;11.50;;;8.20;;
22219;SDS011;11279;48.364;10.904;2022-09-06T04:28:20;12.40;;;7.73;;
22219;SDS011;11279;48.364;10.904;2022-09-06T04:29:20;11.67;;;8.30;;
22219;SDS011;11279;48.364;10.904;2022-09-06T04:30:21;13.83;;;8.43;;
22219;SDS011;11279;48.364;10.904;2022-09-06T04:31:21;12.83;;;8.03;;
22219;SDS011;11279;48.364;10.904;2022-09-06T04:32:22;13.53;;;8.87;;
22219;SDS011;11279;48.364;10.904;2022-09-06T04:33:22;11.07;;;8.00;;
22219;SDS011;11279;48.364;10.904;2022-09-06T04:34:24;13.55;;;8.57;;
22219;SDS011;11279;48.364;10.904;2022-09-06T04:35:25;12.57;;;8.23;;
22219;SDS011;11279;48.364;10.904;2022-09-06T04:36:25;11.93;;;8.07;;
22219;SDS011;11279;48.364;10.904;2022-09-06T04:37:26;14.73;;;8.17;;
22219;SDS011;11279;48.364;10.904;2022-09-06T04:38:27;13.80;;;8.53;;
22219;SDS011;11279;48.364;10.904;2022-09-06T04:39:28;13.90;;;9.13;;
22219;SDS011;11279;48.364;10.904;2022-09-06T04:40:29;13.03;;;8.57;;
22219;SDS011;11279;48.364;10.904;2022-09-06T04:41:29;14.70;;;8.17;;
22219;SDS011;11279;48.364;10.904;2022-09-06T04:42:29;13.20;;;7.60;;
22219;SDS011;11279;48.364;10.904;2022-09-06T04:43:30;14.13;;;7.53;;
22219;SDS011;11279;48.364;10.904;2022-09-06T04:44:30;11.20;;;7.10;;
22219;SDS011;11279;48.364;10.904;2022-09-06T04:45:31;11.40;;;7.23;;
22219;SDS011;11279;48.364;10.904;2022-09-06T04:46:31;14.47;;;8.07;;
22219;SDS011;11279;48.364;10.904;2022-09-06T04:47:32;14.40;;;7.40;;
22219;SDS011;11279;48.364;10.904;2022-09-06T04:48:32;11.87;;;7.50;;
22219;SDS011;11279;48.364;10.904;2022-09-06T04:49:32;16.10;;;8.00;;
22219;SDS011;11279;48.364;10.904;2022-09-06T04:50:33;12.47;;;7.83;;
22219;SDS011;11279;48.364;10.904;2022-09-06T04:51:33;10.93;;;7.13;;
22219;SDS011;11279;48.364;10.904;2022-09-06T04:52:34;12.30;;;7.93;;
22219;SDS011;11279;48.364;10.904;2022-09-06T04:53:34;13.57;;;8.93;;
22219;SDS011;11279;48.364;10.904;2022-09-06T04:54:35;13.60;;;7.87;;
22219;SDS011;11279;48.364;10.904;2022-09-06T04:55:35;11.03;;;7.17;;
22219;SDS011;11279;48.364;10.904;2022-09-06T04:56:36;13.07;;;8.30;;
22219;SDS011;11279;48.364;10.904;2022-09-06T04:57:36;12.83;;;8.03;;
22219;SDS011;11279;48.364;10.904;2022-09-06T04:58:37;11.27;;;7.53;;
22219;SDS011;11279;48.364;10.904;2022-09-06T04:59:37;12.67;;;7.80;;
22219;SDS011;11279;48.364;10.904;2022-09-06T05:00:38;9.77;;;6.93;;
22219;SDS011;11279;48.364;10.904;2022-09-06T05:01:40;12.43;;;7.60;;
22219;SDS011;11279;48.364;10.904;2022-09-06T05:02:41;12.97;;;7.00;;
22219;SDS011;11279;48.364;10.904;2022-09-06T05:03:42;13.40;;;7.63;;
22219;SDS011;11279;48.364;10.904;2022-09-06T05:04:42;12.33;;;7.13;;
22219;SDS011;11279;48.364;10.904;2022-09-06T05:05:43;10.17;;;7.10;;
22219;SDS011;11279;48.364;10.904;2022-09-06T05:06:43;10.43;;;6.90;;
22219;SDS011;11279;48.364;10.904;2022-09-06T05:07:44;11.13;;;7.07;;
22219;SDS011;11279;48.364;10.904;2022-09-06T05:08:44;10.07;;;7.00;;
22219;SDS011;11279;48.364;10.904;2022-09-06T05:09:45;9.80;;;7.00;;
22219;SDS011;11279;48.364;10.904;2022-09-06T05:10:45;9.17;;;7.00;;
22219;SDS011;11279;48.364;10.904;2022-09-06T05:11:46;11.60;;;7.87;;
22219;SDS011;11279;48.364;10.904;2022-09-06T05:12:47;12.33;;;7.33;;
22219;SDS011;11279;48.364;10.904;2022-09-06T05:13:48;12.60;;;7.10;;
22219;SDS011;11279;48.364;10.904;2022-09-06T05:14:49;10.90;;;7.17;;
22219;SDS011;11279;48.364;10.904;2022-09-06T05:15:49;12.37;;;7.60;;
22219;SDS011;11279;48.364;10.904;2022-09-06T05:16:50;11.83;;;7.00;;
22219;SDS011;11279;48.364;10.904;2022-09-06T05:17:50;12.93;;;7.07;;
22219;SDS011;11279;48.364;10.904;2022-09-06T05:18:51;11.77;;;7.63;;
22219;SDS011;11279;48.364;10.904;2022-09-06T05:19:51;12.33;;;7.10;;
22219;SDS011;11279;48.364;10.904;2022-09-06T05:20:52;13.30;;;7.10;;
22219;SDS011;11279;48.364;10.904;2022-09-06T05:21:53;11.35;;;6.65;;
22219;SDS011;11279;48.364;10.904;2022-09-06T05:22:53;13.17;;;6.87;;
22219;SDS011;11279;48.364;10.904;2022-09-06T05:23:54;11.67;;;7.27;;
22219;SDS011;11279;48.364;10.904;2022-09-06T05:24:54;14.17;;;7.57;;
22219;SDS011;11279;48.364;10.904;2022-09-06T05:25:54;11.37;;;7.13;;
22219;SDS011;11279;48.364;10.904;2022-09-06T05:26:55;9.63;;;5.93;;
22219;SDS011;11279;48.364;10.904;2022-09-06T05:27:55;16.00;;;7.50;;
22219;SDS011;11279;48.364;10.904;2022-09-06T05:28:56;13.37;;;7.33;;
22219;SDS011;11279;48.364;10.904;2022-09-06T05:29:56;11.57;;;7.40;;
22219;SDS011;11279;48.364;10.904;2022-09-06T05:31:06;10.10;;;6.73;;
22219;SDS011;11279;48.364;10.904;2022-09-06T05:32:24;10.65;;;6.93;;
22219;SDS011;11279;48.364;10.904;2022-09-06T05:33:24;12.07;;;7.30;;
22219;SDS011;11279;48.364;10.904;2022-09-06T05:34:24;12.33;;;7.10;;
22219;SDS011;11279;48.364;10.904;2022-09-06T05:35:25;10.80;;;6.60;;
22219;SDS011;11279;48.364;10.904;2022-09-06T05:36:26;11.20;;;6.93;;
22219;SDS011;11279;48.364;10.904;2022-09-06T05:37:27;9.48;;;6.45;;
22219;SDS011;11279;48.364;10.904;2022-09-06T05:38:27;12.53;;;7.20;;
22219;SDS011;11279;48.364;10.904;2022-09-06T05:39:28;10.83;;;6.33;;
22219;SDS011;11279;48.364;10.904;2022-09-06T05:40:28;10.10;;;6.90;;
22219;SDS011;11279;48.364;10.904;2022-09-06T05:41:29;9.23;;;6.37;;
22219;SDS011;11279;48.364;10.904;2022-09-06T05:42:29;12.00;;;6.67;;
22219;SDS011;11279;48.364;10.904;2022-09-06T05:43:30;10.70;;;6.80;;
22219;SDS011;11279;48.364;10.904;2022-09-06T05:44:30;9.03;;;6.20;;
22219;SDS011;11279;48.364;10.904;2022-09-06T05:45:30;12.10;;;6.17;;
22219;SDS011;11279;48.364;10.904;2022-09-06T05:46:31;10.77;;;5.97;;
22219;SDS011;11279;48.364;10.904;2022-09-06T05:47:31;8.73;;;5.50;;
22219;SDS011;11279;48.364;10.904;2022-09-06T05:48:34;9.60;;;5.95;;
22219;SDS011;11279;48.364;10.904;2022-09-06T05:49:34;8.27;;;5.50;;
22219;SDS011;11279;48.364;10.904;2022-09-06T05:50:35;8.03;;;5.80;;
22219;SDS011;11279;48.364;10.904;2022-09-06T05:51:35;9.07;;;6.23;;
22219;SDS011;11279;48.364;10.904;2022-09-06T05:52:36;8.70;;;5.60;;
22219;SDS011;11279;48.364;10.904;2022-09-06T05:53:40;9.30;;;6.03;;
22219;SDS011;11279;48.364;10.904;2022-09-06T05:54:42;8.98;;;5.50;;
22219;SDS011;11279;48.364;10.904;2022-09-06T05:55:43;8.60;;;5.60;;
22219;SDS011;11279;48.364;10.904;2022-09-06T05:56:44;10.35;;;5.70;;
22219;SDS011;11279;48.364;10.904;2022-09-06T05:57:45;9.73;;;5.30;;
22219;SDS011;11279;48.364;10.904;2022-09-06T05:58:45;7.93;;;4.90;;
22219;SDS011;11279;48.364;10.904;2022-09-06T05:59:46;8.63;;;5.23;;
22219;SDS011;11279;48.364;10.904;2022-09-06T06:00:46;14.57;;;5.80;;
22219;SDS011;11279;48.364;10.904;2022-09-06T06:01:48;7.60;;;5.17;;
22219;SDS011;11279;48.364;10.904;2022-09-06T06:02:49;8.60;;;5.55;;
22219;SDS011;11279;48.364;10.904;2022-09-06T06:03:50;9.30;;;5.70;;
22219;SDS011;11279;48.364;10.904;2022-09-06T06:04:52;8.68;;;5.82;;
22219;SDS011;11279;48.364;10.904;2022-09-06T06:05:53;8.50;;;5.03;;
22219;SDS011;11279;48.364;10.904;2022-09-06T06:06:53;10.60;;;5.67;;
22219;SDS011;11279;48.364;10.904;2022-09-06T06:07:54;8.57;;;5.67;;
22219;SDS011;11279;48.364;10.904;2022-09-06T06:08:57;14.23;;;5.72;;
22219;SDS011;11279;48.364;10.904;2022-09-06T06:09:58;10.23;;;6.50;;
22219;SDS011;11279;48.364;10.904;2022-09-06T06:10:58;9.17;;;6.23;;
22219;SDS011;11279;48.364;10.904;2022-09-06T06:11:59;11.93;;;6.75;;
22219;SDS011;11279;48.364;10.904;2022-09-06T06:12:59;11.80;;;7.03;;
22219;SDS011;11279;48.364;10.904;2022-09-06T06:14:01;10.70;;;6.77;;
22219;SDS011;11279;48.364;10.904;2022-09-06T06:15:02;9.95;;;6.35;;
22219;SDS011;11279;48.364;10.904;2022-09-06T06:16:14;12.30;;;6.82;;
22219;SDS011;11279;48.364;10.904;2022-09-06T06:17:15;10.65;;;6.80;;
22219;SDS011;11279;48.364;10.904;2022-09-06T06:18:15;9.70;;;6.70;;
22219;SDS011;11279;48.364;10.904;2022-09-06T06:19:16;8.77;;;6.70;;
22219;SDS011;11279;48.364;10.904;2022-09-06T06:20:16;14.20;;;7.00;;
22219;SDS011;11279;48.364;10.904;2022-09-06T06:21:21;10.60;;;6.60;;
22219;SDS011;11279;48.364;10.904;2022-09-06T06:22:25;11.60;;;7.03;;
22219;SDS011;11279;48.364;10.904;2022-09-06T06:23:25;10.83;;;7.50;;
22219;SDS011;11279;48.364;10.904;2022-09-06T06:24:27;11.00;;;7.82;;
22219;SDS011;11279;48.364;10.904;2022-09-06T06:25:27;11.87;;;7.90;;
22219;SDS011;11279;48.364;10.904;2022-09-06T06:26:30;11.40;;;6.90;;
22219;SDS011;11279;48.364;10.904;2022-09-06T06:27:31;11.18;;;7.13;;
22219;SDS011;11279;48.364;10.904;2022-09-06T06:28:34;10.93;;;7.82;;
22219;SDS011;11279;48.364;10.904;2022-09-06T06:29:35;11.05;;;7.63;;
22219;SDS011;11279;48.364;10.904;2022-09-06T06:30:35;10.27;;;6.97;;
22219;SDS011;11279;48.364;10.904;2022-09-06T06:31:36;13.53;;;8.10;;
22219;SDS011;11279;48.364;10.904;2022-09-06T06:32:37;14.85;;;7.15;;
22219;SDS011;11279;48.364;10.904;2022-09-06T06:33:38;14.60;;;8.63;;
22219;SDS011;11279;48.364;10.904;2022-09-06T06:34:38;14.93;;;8.37;;
22219;SDS011;11279;48.364;10.904;2022-09-06T06:35:39;16.53;;;9.67;;
22219;SDS011;11279;48.364;10.904;2022-09-06T06:36:39;16.70;;;9.50;;
22219;SDS011;11279;48.364;10.904;2022-09-06T06:37:40;12.97;;;8.37;;
22219;SDS011;11279;48.364;10.904;2022-09-06T06:38:42;16.40;;;8.13;;
22219;SDS011;11279;48.364;10.904;2022-09-06T06:39:45;16.90;;;8.48;;